Latest Weather Observations for Laverton

IDV60901

Issued at 9:51 pm EST Tuesday 28 April 2015 (issued every 10 minutes, with the page automatically refreshed every 10 minutes)

About weather observations | Map of Melbourne area stations | Latest observations for Melbourne area | Other Formats
Station Details ID: 087031 Name: LAVERTON RAAF Lat: -37.86 Lon: 144.76 Height: 20.1 m
Data from the previous 72 hours. | See also: Recent months at Laverton
Date/Time
EST
Tmp

°C
App
Tmp
°C
Dew
Point
°C
Rel
Hum
%
Delta-T

°C
Wind Press
QNH
hPa
Press
MSL
hPa
Rain
since
9 am
mm
Dir
 
Spd
km/h
Gust
km/h
Spd
kts
Gust
kts
28/09:30pm 8.7 5.7 6.0 83 1.2 NW 11 13 6 7 1030.1 1030.1 0.2
28/09:00pm 11.9 9.8 6.8 71 2.4 SSE 7 9 4 5 1029.9 1029.9 0.2
28/08:30pm 12.2 9.8 7.1 71 2.5 SSE 9 11 5 6 1029.8 1029.8 0.2
28/08:00pm 12.8 10.1 7.5 70 2.6 SE 11 17 6 9 1029.8 1029.8 0.2
28/07:30pm 13.3 10.5 7.1 66 3.0 SSE 11 15 6 8 1029.6 1029.6 0.2
28/07:00pm 13.7 10.2 7.0 64 3.2 SSE 15 20 8 11 1029.5 1029.5 0.2
28/06:30pm 13.6 10.6 7.6 67 2.9 SSE 13 22 7 12 1029.3 1029.3 0.2
28/06:00pm 13.7 10.5 8.3 70 2.7 SSE 15 22 8 12 1029.1 1029.1 0.2
28/05:30pm 13.7 10.0 7.9 68 2.9 S 17 24 9 13 1028.7 1028.7 0.2
28/05:00pm 14.3 10.0 7.8 65 3.2 SSE 20 30 11 16 1028.5 1028.5 0.2
28/04:30pm 14.9 10.5 7.2 60 3.8 SSE 20 32 11 17 1028.3 1028.3 0.2
28/04:00pm 15.3 10.1 7.3 59 3.9 SSE 24 32 13 17 1028.3 1028.3 0.2
28/03:30pm 14.7 9.6 7.5 62 3.6 S 24 33 13 18 1028.3 1028.3 0.2
28/03:00pm 15.9 11.2 9.1 64 3.5 SSE 24 35 13 19 1028.2 1028.2 0.2
28/02:30pm 15.1 10.8 9.2 68 3.0 SSE 22 32 12 17 1028.2 1028.2 0.2
28/02:00pm 15.4 11.5 8.6 64 3.4 SSE 19 28 10 15 1028.3 1028.3 0.2
28/01:30pm 15.1 11.6 8.8 66 3.2 SE 17 24 9 13 1028.6 1028.6 0.2
28/01:00pm 15.2 10.8 7.2 59 3.9 SE 20 30 11 16 1028.7 1028.7 0.2
28/12:30pm 15.2 12.2 10.6 74 2.4 SE 17 24 9 13 1029.0 1029.0 0.2
28/12:00pm 13.7 10.7 9.4 75 2.2 SE 15 22 8 12 1029.3 1029.3 0.2
28/11:30am 14.2 10.6 8.4 68 2.9 S 17 22 9 12 1029.4 1029.4 0.2
28/11:00am 14.2 11.7 9.8 75 2.3 SSW 13 19 7 10 1029.3 1029.3 0.2
28/10:30am 13.3 11.9 10.8 85 1.3 WSW 9 13 5 7 1029.4 1029.4 0.2
28/10:00am 11.6 9.6 10.0 90 0.8 WNW 11 13 6 7 1029.3 1029.3 0.2
28/09:30am 10.7 8.9 9.3 91 0.7 W 9 13 5 7 1029.4 1029.4 0.2
28/09:00am 10.0 8.0 8.8 92 0.6 W 9 11 5 6 1029.2 1029.2 0.4
28/08:58am 9.9 7.9 8.5 91 0.7 W 9 11 5 6 1029.1 1029.1 0.4
28/08:30am 9.6 7.4 8.0 90 0.8 SW 9 13 5 7 1029.2 1029.2 0.2
28/08:28am 9.6 7.4 8.0 90 0.8 WSW 9 13 5 7 1029.2 1029.2 0.0
28/08:00am 9.5 7.3 7.9 90 0.8 WSW 9 13 5 7 1028.6 1028.6 0.0
28/07:30am 9.3 6.3 7.9 91 0.7 WSW 13 19 7 10 1028.2 1028.2 0.0
28/07:00am 9.3 7.2 8.1 92 0.6 W 9 13 5 7 1027.9 1027.9 0.0
28/06:30am 9.0 6.4 7.8 92 0.6 W 11 15 6 8 1027.5 1027.5 0.0
28/06:00am 8.9 5.9 7.8 93 0.5 WSW 13 17 7 9 1027.3 1027.3 0.0
28/05:30am 8.9 6.3 7.8 93 0.5 W 11 15 6 8 1027.0 1027.0 0.0
28/05:00am 8.9 6.7 7.8 93 0.5 W 9 13 5 7 1026.7 1026.7 0.0
28/04:30am 9.4 6.6 8.5 94 0.4 WSW 13 17 7 9 1026.5 1026.5 0.0
28/04:00am 8.8 6.3 8.0 95 0.4 WSW 11 15 6 8 1026.3 1026.3 0.0
28/03:30am 8.2 5.9 7.3 94 0.4 W 9 13 5 7 1026.2 1026.2 0.0
28/03:00am 7.9 5.5 6.8 93 0.5 WNW 9 13 5 7 1026.2 1026.2 0.0
28/02:30am 8.6 5.9 7.2 91 0.7 WNW 11 13 6 7 1026.2 1026.2 0.0
28/02:00am 9.3 6.7 7.7 90 0.8 W 11 15 6 8 1026.2 1026.2 0.0
28/01:30am 9.9 7.0 8.0 88 0.9 W 13 19 7 10 1026.2 1026.2 0.0
28/01:00am 10.1 7.5 7.9 86 1.1 W 11 15 6 8 1026.2 1026.2 0.0
28/12:30am 10.5 7.6 8.1 85 1.2 W 13 19 7 10 1026.2 1026.2 0.0
28/12:00am 10.3 7.7 7.7 84 1.2 W 11 15 6 8 1026.2 1026.2 0.0
 
Date/Time
EST
Tmp

°C
App
Tmp
°C
Dew
Point
°C
Rel
Hum
%
Delta-T

°C
Wind Press
QNH
hPa
Press
MSL
hPa
Rain
since
9 am
mm
Dir
 
Spd
km/h
Gust
km/h
Spd
kts
Gust
kts
27/11:30pm 10.8 7.8 7.9 82 1.4 WSW 13 19 7 10 1026.3 1026.3 0.0
27/11:00pm 10.9 7.8 7.4 79 1.7 W 13 19 7 10 1026.1 1026.1 0.0
27/10:30pm 11.1 8.1 7.6 79 1.7 WSW 13 17 7 9 1026.3 1026.3 0.0
27/10:00pm 11.3 9.1 7.8 79 1.7 W 9 13 5 7 1026.2 1026.2 0.0
27/09:30pm 11.2 8.7 8.1 81 1.5 WSW 11 15 6 8 1026.1 1026.1 0.0
27/09:00pm 11.0 8.9 8.2 83 1.4 WSW 9 13 5 7 1025.8 1025.8 0.0
27/08:30pm 11.2 9.2 8.6 84 1.3 W 9 13 5 7 1025.6 1025.6 0.0
27/08:00pm 11.7 9.3 8.6 81 1.5 SW 11 13 6 7 1025.4 1025.4 0.0
27/07:30pm 12.6 9.6 9.1 79 1.8 SSW 15 19 8 10 1025.1 1025.1 0.0
27/07:00pm 12.5 10.0 8.4 76 2.0 SSW 11 15 6 8 1024.8 1024.8 0.0
27/06:30pm 12.8 9.6 8.5 75 2.1 SSW 15 20 8 11 1024.5 1024.5 0.0
27/06:00pm 13.3 9.8 8.8 74 2.3 SSW 17 24 9 13 1024.2 1024.2 0.0
27/05:30pm 13.6 10.5 8.9 73 2.4 SSW 15 22 8 12 1023.9 1023.9 0.0
27/05:00pm 13.7 10.3 9.0 73 2.4 SSW 17 24 9 13 1023.8 1023.8 0.0
27/04:30pm 13.9 10.0 8.7 71 2.6 SSW 19 26 10 14 1023.5 1023.5 0.0
27/04:00pm 14.0 9.9 8.6 70 2.7 SSW 20 26 11 14 1023.4 1023.4 0.0
27/03:30pm 13.8 10.1 9.6 76 2.2 S 19 24 10 13 1023.4 1023.4 0.0
27/03:00pm 14.5 11.2 9.5 72 2.6 SSW 17 26 9 14 1023.2 1023.2 0.0
27/02:30pm 14.4 11.2 9.8 74 2.4 S 17 26 9 14 1023.1 1023.1 0.0
27/02:00pm 14.4 10.4 8.1 66 3.1 SSW 19 28 10 15 1022.8 1022.8 0.0
27/01:30pm 14.3 10.1 8.3 67 3.0 S 20 30 11 16 1022.8 1022.8 0.0
27/01:00pm 14.4 11.0 9.0 70 2.7 SSW 17 24 9 13 1022.9 1022.9 0.0
27/12:30pm 14.8 11.1 8.1 64 3.4 SSW 17 24 9 13 1023.1 1023.1 0.0
27/12:00pm 14.4 10.1 7.9 65 3.2 SW 20 32 11 17 1023.3 1023.3 0.0
27/11:30am 15.3 11.1 8.3 63 3.5 SSW 20 33 11 18 1023.4 1023.4 0.0
27/11:00am 15.2 11.2 9.1 67 3.1 WSW 20 26 11 14 1023.4 1023.4 0.0
27/10:30am 14.3 10.2 8.5 68 2.9 WSW 20 28 11 15 1023.6 1023.6 0.0
27/10:00am 13.7 9.7 9.0 73 2.4 WSW 20 32 11 17 1023.4 1023.4 0.0
27/09:30am 13.6 9.7 9.3 75 2.2 WSW 20 30 11 16 1023.3 1023.3 0.0
27/09:00am 11.9 8.1 9.1 83 1.4 WSW 19 26 10 14 1023.3 1023.3 0.2
27/08:30am 11.1 7.2 8.8 86 1.1 W 19 24 10 13 1023.1 1023.1 0.2
27/08:00am 11.0 7.5 8.9 87 1.0 W 17 22 9 12 1023.0 1023.0 0.2
27/07:30am 10.5 7.0 8.8 89 0.8 WSW 17 24 9 13 1022.7 1022.7 0.2
27/07:00am 10.2 6.3 8.5 89 0.8 W 19 24 10 13 1022.2 1022.2 0.2
27/06:30am 10.1 6.5 8.4 89 0.8 W 17 24 9 13 1022.1 1022.1 0.2
27/06:00am 10.4 7.6 8.7 89 0.8 W 13 19 7 10 1021.9 1021.9 0.2
27/05:30am 10.2 7.4 8.5 89 0.8 WSW 13 19 7 10 1021.7 1021.7 0.2
27/05:00am 10.3 7.1 8.6 89 0.8 W 15 20 8 11 1021.6 1021.6 0.2
27/04:30am 10.2 7.0 8.5 89 0.8 W 15 20 8 11 1021.3 1021.3 0.2
27/04:00am 10.2 7.0 8.3 88 0.9 WSW 15 22 8 12 1021.2 1021.2 0.2
27/03:30am 10.1 6.5 8.2 88 0.9 W 17 22 9 12 1021.1 1021.1 0.2
27/03:00am 10.2 6.6 8.3 88 0.9 W 17 22 9 12 1021.1 1021.1 0.2
27/02:30am 9.9 6.2 8.0 88 0.9 W 17 22 9 12 1020.9 1020.9 0.2
27/02:00am 10.1 6.4 8.0 87 1.0 W 17 20 9 11 1021.0 1021.0 0.2
27/01:30am 10.2 6.5 8.1 87 1.0 W 17 24 9 13 1020.9 1020.9 0.2
27/01:00am 10.4 7.1 8.2 86 1.1 W 15 20 8 11 1020.8 1020.8 0.2
27/12:30am 10.6 7.0 8.4 86 1.1 WSW 17 24 9 13 1021.0 1021.0 0.2
27/12:00am 10.5 6.9 8.3 86 1.1 W 17 24 9 13 1021.1 1021.1 0.2
 
Date/Time
EST
Tmp

°C
App
Tmp
°C
Dew
Point
°C
Rel
Hum
%
Delta-T

°C
Wind Press
QNH
hPa
Press
MSL
hPa
Rain
since
9 am
mm
Dir
 
Spd
km/h
Gust
km/h
Spd
kts
Gust
kts
26/11:30pm 10.0 7.0 7.8 86 1.1 W 13 19 7 10 1021.2 1021.2 0.2
26/11:00pm 10.3 7.3 7.9 85 1.2 WNW 13 19 7 10 1021.2 1021.2 0.2
26/10:30pm 10.5 6.7 7.7 83 1.3 W 17 22 9 12 1021.3 1021.3 0.2
26/10:00pm 11.2 7.1 7.9 80 1.6 W 19 28 10 15 1021.4 1021.4 0.2
26/09:30pm 11.4 7.6 7.7 78 1.8 W 17 24 9 13 1021.4 1021.4 0.2
26/09:00pm 11.3 7.4 7.0 75 2.0 W 17 22 9 12 1021.3 1021.3 0.2
26/08:30pm 11.8 7.5 7.1 73 2.3 WSW 19 24 10 13 1021.1 1021.1 0.2
26/08:00pm 12.0 7.1 7.1 72 2.3 WSW 22 32 12 17 1020.9 1020.9 0.2
26/07:30pm 11.9 8.1 7.6 75 2.1 WSW 17 24 9 13 1020.9 1020.9 0.2
26/07:00pm 12.0 7.9 7.7 75 2.1 WSW 19 26 10 14 1020.8 1020.8 0.2
26/06:30pm 12.4 8.1 7.7 73 2.3 WSW 20 28 11 15 1020.6 1020.6 0.2
26/06:00pm 12.7 7.2 7.6 71 2.5 WSW 26 41 14 22 1020.3 1020.3 0.2
26/05:30pm 13.2 8.0 7.4 68 2.8 WSW 24 35 13 19 1020.0 1020.0 0.2
26/05:00pm 13.5 7.9 7.3 66 3.0 WSW 26 39 14 21 1019.7 1019.6 0.2
26/04:30pm 13.9 9.6 7.7 66 3.1 SSW 20 32 11 17 1019.5 1019.4 0.2
26/04:00pm 14.5 10.4 8.5 67 3.0 SSW 20 28 11 15 1019.2 1019.1 0.2
26/03:30pm 14.2 9.7 8.4 68 2.9 SSW 22 28 12 15 1019.0 1018.9 0.2
26/03:00pm 14.3 10.1 8.3 67 3.0 SSW 20 32 11 17 1018.9 1018.8 0.2
26/02:30pm 14.5 9.8 7.8 64 3.3 SSW 22 32 12 17 1018.7 1018.6 0.2
26/02:00pm 14.9 10.3 8.2 64 3.4 SSW 22 32 12 17 1018.6 1018.5 0.2
26/01:30pm 15.2 11.2 8.2 63 3.5 SSW 19 24 10 13 1018.4 1018.3 0.2
26/01:00pm 14.3 9.1 8.7 69 2.8 SSW 26 33 14 18 1018.6 1018.5 0.2
26/12:30pm 14.8 9.9 8.3 65 3.3 SW 24 33 13 18 1018.7 1018.6 0.2
26/12:00pm 13.4 9.1 9.5 77 2.0 SW 22 33 12 18 1019.0 1018.9 0.2
26/11:30am 12.2 7.6 9.8 85 1.2 SW 24 35 13 19 1019.3 1019.2 0.2
26/11:00am 12.5 8.5 10.6 88 1.0 SW 22 28 12 15 1019.1 1019.0 0.2
26/10:32am 11.9 8.5 10.6 92 0.7 SW 19 28 10 15 1019.1 1019.0 0.2
26/10:30am 11.8 8.4 10.5 92 0.7 SW 19 28 10 15 1019.1 1019.0 0.2
26/10:23am 11.3 7.6 10.2 93 0.6 WSW 20 28 11 15 1019.1 1019.0 0.2
26/10:17am 11.2 7.5 10.1 93 0.6 WSW 20 28 11 15 1019.2 1019.1 0.2
26/10:00am 10.9 6.7 9.8 93 0.6 SW 22 32 12 17 1019.1 1019.0 0.2
26/09:51am 11.0 6.8 9.8 92 0.6 WSW 22 35 12 19 1019.2 1019.1 0.2
26/09:48am 11.0 7.2 9.8 92 0.6 SW 20 35 11 19 1019.1 1019.0 0.2
26/09:30am 10.8 7.5 9.7 93 0.6 SW 17 26 9 14 1019.1 1019.0 0.2
26/09:21am 10.6 6.7 9.5 93 0.6 WSW 20 30 11 16 1019.0 1018.9 0.2
26/09:00am 10.6 5.9 9.4 92 0.6 WSW 24 35 13 19 1018.9 1018.8 4.6
26/08:48am 10.4 6.7 9.5 94 0.5 WSW 19 30 10 16 1018.7 1018.6 4.6
26/08:30am 9.9 6.1 9.0 94 0.4 WSW 19 26 10 14 1018.6 1018.5 4.6
26/08:19am 9.9 6.1 9.0 94 0.4 WSW 19 30 10 16 1018.5 1018.4 4.6
26/08:11am 9.8 5.3 8.7 93 0.5 WSW 22 30 12 16 1018.3 1018.2 4.6
26/08:00am 9.8 5.9 8.7 93 0.5 WSW 19 24 10 13 1018.2 1018.1 4.6
26/07:44am 9.8 5.9 8.7 93 0.5 WSW 19 24 10 13 1018.0 1017.9 4.6
26/07:30am 9.7 5.6 8.6 93 0.5 WSW 20 28 11 15 1017.7 1017.6 4.6
26/07:00am 9.8 5.3 8.6 92 0.6 SW 22 33 12 18 1017.3 1017.2 4.6
26/06:53am 10.0 5.1 8.6 91 0.7 SW 24 35 13 19 1017.3 1017.2 4.4
26/06:30am 9.8 5.8 8.4 91 0.7 WSW 19 28 10 15 1016.9 1016.8 4.4
26/06:00am 9.7 6.0 8.1 90 0.8 WSW 17 24 9 13 1016.7 1016.6 4.4
26/05:47am 9.9 6.7 8.3 90 0.8 WSW 15 22 8 12 1016.6 1016.5 4.4
26/05:30am 10.0 6.0 8.4 90 0.8 WSW 19 26 10 14 1016.5 1016.4 4.4
26/05:28am 10.0 6.0 8.4 90 0.8 WSW 19 26 10 14 1016.5 1016.4 4.4
26/05:00am 10.0 5.9 8.6 91 0.7 WSW 20 28 11 15 1016.3 1016.2 4.4
26/04:30am 10.1 6.0 8.7 91 0.7 WSW 20 28 11 15 1015.9 1015.8 4.4
26/04:00am 10.1 5.6 8.5 90 0.8 WSW 22 30 12 16 1015.8 1015.7 4.4
26/03:30am 10.1 5.6 8.4 89 0.8 WSW 22 30 12 16 1015.5 1015.4 4.4
26/03:00am 10.8 6.3 8.4 85 1.2 WSW 22 30 12 16 1015.5 1015.4 4.4
26/02:30am 11.1 6.9 8.3 83 1.4 WSW 20 28 11 15 1015.5 1015.4 4.4
26/02:00am 11.6 7.9 7.9 78 1.8 WSW 17 28 9 15 1015.5 1015.4 4.4
26/01:30am 11.8 8.1 7.9 77 1.9 WSW 17 28 9 15 1015.5 1015.4 4.4
26/01:00am 11.9 7.3 8.0 77 1.9 WSW 22 32 12 17 1015.2 1015.1 4.4
26/12:30am 11.9 8.0 8.7 81 1.6 WSW 19 26 10 14 1014.9 1014.8 4.4
26/12:00am 11.9 7.9 9.1 83 1.4 WSW 20 28 11 15 1014.8 1014.7 4.4
 
Date/Time
EST
Tmp

°C
App
Tmp
°C
Dew
Point
°C
Rel
Hum
%
Delta-T

°C
Wind Press
QNH
hPa
Press
MSL
hPa
Rain
since
9 am
mm
Dir
 
Spd
km/h
Gust
km/h
Spd
kts
Gust
kts
25/11:30pm 11.9 7.7 9.6 86 1.2 WSW 22 30 12 16 1014.5 1014.4 4.4
25/11:00pm 12.2 9.3 9.8 85 1.2 WSW 15 22 8 12 1014.4 1014.3 4.4
25/10:30pm 12.6 8.8 9.1 79 1.8 SW 19 26 10 14 1014.3 1014.2 4.4
25/10:00pm 13.4 7.9 9.1 75 2.2 SSW 28 37 15 20 1014.0 1013.9 4.4

Latest Capital City Observations: Canberra | Sydney | Melbourne | Brisbane | Adelaide | Perth | Hobart | Darwin

Other Formats:

Comma delimited format used in spreadsheet applications
http://www.bom.gov.au/fwo/IDV60901/IDV60901.94865.axf

JavaScript Object Notation format (JSON) in row-major order
http://www.bom.gov.au/fwo/IDV60901/IDV60901.94865.json